sensor_id;sensor_type;location;lat;lon;timestamp;temperature;humidity
15951;DHT22;8074;48.112;11.570;2022-09-20T00:02:07;8.90;99.90
15951;DHT22;8074;48.112;11.570;2022-09-20T00:04:34;8.90;99.90
15951;DHT22;8074;48.112;11.570;2022-09-20T00:07:01;8.90;99.90
15951;DHT22;8074;48.112;11.570;2022-09-20T00:09:28;8.70;99.90
15951;DHT22;8074;48.112;11.570;2022-09-20T00:11:57;8.60;99.90
15951;DHT22;8074;48.112;11.570;2022-09-20T00:14:24;8.70;99.90
15951;DHT22;8074;48.112;11.570;2022-09-20T00:16:51;8.80;99.90
15951;DHT22;8074;48.112;11.570;2022-09-20T00:19:20;8.90;99.90
15951;DHT22;8074;48.112;11.570;2022-09-20T00:21:51;9.10;99.90
15951;DHT22;8074;48.112;11.570;2022-09-20T00:24:18;9.10;99.90
15951;DHT22;8074;48.112;11.570;2022-09-20T00:26:45;9.10;99.90
15951;DHT22;8074;48.112;11.570;2022-09-20T00:29:14;9.10;99.90
15951;DHT22;8074;48.112;11.570;2022-09-20T00:31:42;9.10;99.90
15951;DHT22;8074;48.112;11.570;2022-09-20T00:34:10;9.20;99.90
15951;DHT22;8074;48.112;11.570;2022-09-20T00:36:54;9.10;99.90
15951;DHT22;8074;48.112;11.570;2022-09-20T00:39:25;9.10;99.90
15951;DHT22;8074;48.112;11.570;2022-09-20T00:41:53;9.10;99.90
15951;DHT22;8074;48.112;11.570;2022-09-20T00:44:48;9.10;99.90
15951;DHT22;8074;48.112;11.570;2022-09-20T00:47:25;9.20;99.90
15951;DHT22;8074;48.112;11.570;2022-09-20T00:49:58;9.10;99.90
15951;DHT22;8074;48.112;11.570;2022-09-20T00:52:28;9.10;99.90
15951;DHT22;8074;48.112;11.570;2022-09-20T00:54:56;9.10;99.90
15951;DHT22;8074;48.112;11.570;2022-09-20T00:57:24;9.10;99.90
15951;DHT22;8074;48.112;11.570;2022-09-20T00:59:54;9.20;99.90
15951;DHT22;8074;48.112;11.570;2022-09-20T01:02:25;9.20;99.90
15951;DHT22;8074;48.112;11.570;2022-09-20T01:04:54;9.00;99.90
15951;DHT22;8074;48.112;11.570;2022-09-20T01:07:23;9.10;99.90
15951;DHT22;8074;48.112;11.570;2022-09-20T01:09:50;9.10;99.90
15951;DHT22;8074;48.112;11.570;2022-09-20T01:12:20;9.10;99.90
15951;DHT22;8074;48.112;11.570;2022-09-20T01:14:50;9.10;99.90
15951;DHT22;8074;48.112;11.570;2022-09-20T01:17:21;9.10;99.90
15951;DHT22;8074;48.112;11.570;2022-09-20T01:20:02;9.20;99.90
15951;DHT22;8074;48.112;11.570;2022-09-20T01:22:42;8.90;99.90
15951;DHT22;8074;48.112;11.570;2022-09-20T01:25:16;9.00;99.90
15951;DHT22;8074;48.112;11.570;2022-09-20T01:27:45;9.00;99.90
15951;DHT22;8074;48.112;11.570;2022-09-20T01:30:15;9.00;99.90
15951;DHT22;8074;48.112;11.570;2022-09-20T01:32:55;9.00;99.90
15951;DHT22;8074;48.112;11.570;2022-09-20T01:35:26;8.80;99.90
15951;DHT22;8074;48.112;11.570;2022-09-20T01:38:14;9.00;99.90
15951;DHT22;8074;48.112;11.570;2022-09-20T01:40:49;9.00;99.90
15951;DHT22;8074;48.112;11.570;2022-09-20T01:43:25;8.80;99.90
15951;DHT22;8074;48.112;11.570;2022-09-20T01:46:19;8.70;99.90
15951;DHT22;8074;48.112;11.570;2022-09-20T01:48:49;8.70;99.90
15951;DHT22;8074;48.112;11.570;2022-09-20T01:51:39;8.60;99.90
15951;DHT22;8074;48.112;11.570;2022-09-20T01:57:51;8.50;99.90
15951;DHT22;8074;48.112;11.570;2022-09-20T02:00:23;8.50;99.90
15951;DHT22;8074;48.112;11.570;2022-09-20T02:03:25;8.60;99.90
15951;DHT22;8074;48.112;11.570;2022-09-20T02:06:24;8.70;99.90
15951;DHT22;8074;48.112;11.570;2022-09-20T02:09:17;8.70;99.90
15951;DHT22;8074;48.112;11.570;2022-09-20T02:11:58;8.60;99.90
15951;DHT22;8074;48.112;11.570;2022-09-20T02:14:38;8.60;99.90
15951;DHT22;8074;48.112;11.570;2022-09-20T02:17:13;8.50;99.90
15951;DHT22;8074;48.112;11.570;2022-09-20T02:20:00;8.50;99.90
15951;DHT22;8074;48.112;11.570;2022-09-20T02:22:43;8.40;99.90
15951;DHT22;8074;48.112;11.570;2022-09-20T02:25:24;8.50;99.90
15951;DHT22;8074;48.112;11.570;2022-09-20T02:28:04;8.50;99.90
15951;DHT22;8074;48.112;11.570;2022-09-20T02:31:08;8.60;99.90
15951;DHT22;8074;48.112;11.570;2022-09-20T02:37:56;8.50;99.90
15951;DHT22;8074;48.112;11.570;2022-09-20T02:44:06;8.70;99.90
15951;DHT22;8074;48.112;11.570;2022-09-20T02:46:59;8.60;99.90
15951;DHT22;8074;48.112;11.570;2022-09-20T02:50:05;8.60;99.90
15951;DHT22;8074;48.112;11.570;2022-09-20T02:53:06;8.70;99.90
15951;DHT22;8074;48.112;11.570;2022-09-20T02:56:01;8.70;99.90
15951;DHT22;8074;48.112;11.570;2022-09-20T02:58:56;8.70;99.90
15951;DHT22;8074;48.112;11.570;2022-09-20T03:01:53;8.60;99.90
15951;DHT22;8074;48.112;11.570;2022-09-20T03:04:52;8.50;99.90
15951;DHT22;8074;48.112;11.570;2022-09-20T03:07:55;8.60;99.90
15951;DHT22;8074;48.112;11.570;2022-09-20T03:10:34;8.70;99.90
15951;DHT22;8074;48.112;11.570;2022-09-20T03:13:17;8.70;99.90
15951;DHT22;8074;48.112;11.570;2022-09-20T03:15:56;8.70;99.90
15951;DHT22;8074;48.112;11.570;2022-09-20T03:18:34;8.70;99.90
15951;DHT22;8074;48.112;11.570;2022-09-20T03:21:10;8.50;99.90
15951;DHT22;8074;48.112;11.570;2022-09-20T03:24:01;8.50;99.90
15951;DHT22;8074;48.112;11.570;2022-09-20T03:26:42;8.60;99.90
15951;DHT22;8074;48.112;11.570;2022-09-20T03:29:24;8.70;99.90
15951;DHT22;8074;48.112;11.570;2022-09-20T03:32:27;8.80;99.90
15951;DHT22;8074;48.112;11.570;2022-09-20T03:35:21;8.70;99.90
15951;DHT22;8074;48.112;11.570;2022-09-20T03:38:04;8.70;99.90
15951;DHT22;8074;48.112;11.570;2022-09-20T03:44:26;8.70;99.90
15951;DHT22;8074;48.112;11.570;2022-09-20T03:47:57;8.60;99.90
15951;DHT22;8074;48.112;11.570;2022-09-20T03:50:53;8.50;99.90
15951;DHT22;8074;48.112;11.570;2022-09-20T03:54:07;8.50;99.90
15951;DHT22;8074;48.112;11.570;2022-09-20T03:57:29;8.60;99.90
15951;DHT22;8074;48.112;11.570;2022-09-20T04:00:11;8.60;99.90
15951;DHT22;8074;48.112;11.570;2022-09-20T04:02:59;8.60;99.90
15951;DHT22;8074;48.112;11.570;2022-09-20T04:05:37;8.70;99.90
15951;DHT22;8074;48.112;11.570;2022-09-20T04:08:16;8.60;99.90
15951;DHT22;8074;48.112;11.570;2022-09-20T04:10:58;8.60;99.90
15951;DHT22;8074;48.112;11.570;2022-09-20T04:13:37;8.60;99.90
15951;DHT22;8074;48.112;11.570;2022-09-20T04:19:28;8.70;99.90
15951;DHT22;8074;48.112;11.570;2022-09-20T04:22:00;8.80;99.90
15951;DHT22;8074;48.112;11.570;2022-09-20T04:24:36;8.70;99.90
15951;DHT22;8074;48.112;11.570;2022-09-20T05:09:26;8.70;99.90
15951;DHT22;8074;48.112;11.570;2022-09-20T05:45:03;8.90;99.90
15951;DHT22;8074;48.112;11.570;2022-09-20T05:47:42;8.90;99.90
15951;DHT22;8074;48.112;11.570;2022-09-20T05:50:49;9.00;99.90
15951;DHT22;8074;48.112;11.570;2022-09-20T05:53:57;9.00;99.90
15951;DHT22;8074;48.112;11.570;2022-09-20T05:56:58;8.80;99.90
15951;DHT22;8074;48.112;11.570;2022-09-20T05:59:36;8.90;99.90
15951;DHT22;8074;48.112;11.570;2022-09-20T06:02:21;9.10;99.90
15951;DHT22;8074;48.112;11.570;2022-09-20T06:04:58;9.20;99.90
15951;DHT22;8074;48.112;11.570;2022-09-20T06:07:39;9.30;99.90
15951;DHT22;8074;48.112;11.570;2022-09-20T06:10:25;9.40;99.90
15951;DHT22;8074;48.112;11.570;2022-09-20T06:13:04;9.60;99.90
15951;DHT22;8074;48.112;11.570;2022-09-20T06:15:37;9.50;99.90
15951;DHT22;8074;48.112;11.570;2022-09-20T06:18:20;9.50;99.90
15951;DHT22;8074;48.112;11.570;2022-09-20T06:20:56;9.50;99.90
15951;DHT22;8074;48.112;11.570;2022-09-20T06:25:52;9.20;99.90
15951;DHT22;8074;48.112;11.570;2022-09-20T06:28:25;9.30;99.90
15951;DHT22;8074;48.112;11.570;2022-09-20T06:30:55;9.40;99.90
15951;DHT22;8074;48.112;11.570;2022-09-20T06:33:25;9.40;99.90
15951;DHT22;8074;48.112;11.570;2022-09-20T06:35:55;9.30;99.90
15951;DHT22;8074;48.112;11.570;2022-09-20T06:38:47;9.40;99.90
15951;DHT22;8074;48.112;11.570;2022-09-20T06:41:36;9.50;99.90
15951;DHT22;8074;48.112;11.570;2022-09-20T06:44:06;9.80;99.90
15951;DHT22;8074;48.112;11.570;2022-09-20T06:46:52;9.80;99.90
15951;DHT22;8074;48.112;11.570;2022-09-20T06:49:41;9.80;99.90
15951;DHT22;8074;48.112;11.570;2022-09-20T06:52:29;9.80;99.90
15951;DHT22;8074;48.112;11.570;2022-09-20T06:55:19;9.90;99.90
15951;DHT22;8074;48.112;11.570;2022-09-20T06:58:07;10.00;99.90
15951;DHT22;8074;48.112;11.570;2022-09-20T07:00:34;10.30;99.90
15951;DHT22;8074;48.112;11.570;2022-09-20T07:05:29;10.20;99.90
15951;DHT22;8074;48.112;11.570;2022-09-20T07:08:05;10.10;99.90
15951;DHT22;8074;48.112;11.570;2022-09-20T07:10:39;10.00;99.90
15951;DHT22;8074;48.112;11.570;2022-09-20T07:13:09;10.00;99.90
15951;DHT22;8074;48.112;11.570;2022-09-20T07:15:38;10.00;99.90
15951;DHT22;8074;48.112;11.570;2022-09-20T07:18:06;10.10;99.90
15951;DHT22;8074;48.112;11.570;2022-09-20T07:20:37;10.20;99.90
15951;DHT22;8074;48.112;11.570;2022-09-20T07:23:06;10.30;99.90
15951;DHT22;8074;48.112;11.570;2022-09-20T07:25:54;10.30;99.90
15951;DHT22;8074;48.112;11.570;2022-09-20T07:28:22;10.20;99.90
15951;DHT22;8074;48.112;11.570;2022-09-20T07:30:49;10.20;99.90
15951;DHT22;8074;48.112;11.570;2022-09-20T07:33:35;10.40;99.90
15951;DHT22;8074;48.112;11.570;2022-09-20T07:36:06;10.40;99.90
15951;DHT22;8074;48.112;11.570;2022-09-20T07:41:05;10.50;99.90
15951;DHT22;8074;48.112;11.570;2022-09-20T07:43:57;10.40;99.90
15951;DHT22;8074;48.112;11.570;2022-09-20T07:47:00;10.30;99.90
15951;DHT22;8074;48.112;11.570;2022-09-20T07:49:28;10.20;99.90
15951;DHT22;8074;48.112;11.570;2022-09-20T07:51:58;10.30;99.90
15951;DHT22;8074;48.112;11.570;2022-09-20T07:54:27;10.20;99.90
15951;DHT22;8074;48.112;11.570;2022-09-20T07:56:58;10.10;99.90
15951;DHT22;8074;48.112;11.570;2022-09-20T07:59:26;10.20;99.90
15951;DHT22;8074;48.112;11.570;2022-09-20T08:01:53;10.10;99.90
15951;DHT22;8074;48.112;11.570;2022-09-20T08:04:24;10.10;99.90
15951;DHT22;8074;48.112;11.570;2022-09-20T08:06:53;9.90;99.90
15951;DHT22;8074;48.112;11.570;2022-09-20T08:09:21;10.00;99.90
15951;DHT22;8074;48.112;11.570;2022-09-20T08:11:48;9.90;99.90
15951;DHT22;8074;48.112;11.570;2022-09-20T08:14:16;9.80;99.90
15951;DHT22;8074;48.112;11.570;2022-09-20T08:16:45;9.90;99.90
15951;DHT22;8074;48.112;11.570;2022-09-20T08:19:15;9.90;99.90
15951;DHT22;8074;48.112;11.570;2022-09-20T08:21:42;9.90;99.90
15951;DHT22;8074;48.112;11.570;2022-09-20T08:24:09;10.00;99.90
15951;DHT22;8074;48.112;11.570;2022-09-20T08:26:38;10.30;99.90
15951;DHT22;8074;48.112;11.570;2022-09-20T08:29:06;10.30;99.90
15951;DHT22;8074;48.112;11.570;2022-09-20T08:31:43;10.10;99.90
15951;DHT22;8074;48.112;11.570;2022-09-20T08:34:14;10.00;99.90
15951;DHT22;8074;48.112;11.570;2022-09-20T08:36:46;10.20;99.90
15951;DHT22;8074;48.112;11.570;2022-09-20T08:39:17;10.20;99.90
15951;DHT22;8074;48.112;11.570;2022-09-20T08:41:49;10.40;99.90
15951;DHT22;8074;48.112;11.570;2022-09-20T08:44:22;10.60;99.90
15951;DHT22;8074;48.112;11.570;2022-09-20T08:46:58;10.80;99.90
15951;DHT22;8074;48.112;11.570;2022-09-20T08:49:28;11.00;99.90
15951;DHT22;8074;48.112;11.570;2022-09-20T08:51:57;10.70;99.90
15951;DHT22;8074;48.112;11.570;2022-09-20T08:54:25;10.40;99.90
15951;DHT22;8074;48.112;11.570;2022-09-20T08:56:55;10.10;99.90
15951;DHT22;8074;48.112;11.570;2022-09-20T08:59:23;10.10;99.90
15951;DHT22;8074;48.112;11.570;2022-09-20T09:01:53;10.20;99.90
15951;DHT22;8074;48.112;11.570;2022-09-20T09:04:22;10.50;99.90
15951;DHT22;8074;48.112;11.570;2022-09-20T09:06:50;10.90;99.90
15951;DHT22;8074;48.112;11.570;2022-09-20T09:09:32;11.00;99.90
15951;DHT22;8074;48.112;11.570;2022-09-20T09:12:04;11.20;99.90
15951;DHT22;8074;48.112;11.570;2022-09-20T09:14:41;11.80;99.90
15951;DHT22;8074;48.112;11.570;2022-09-20T09:17:23;12.30;99.90
15951;DHT22;8074;48.112;11.570;2022-09-20T09:19:52;12.40;99.90
15951;DHT22;8074;48.112;11.570;2022-09-20T09:22:24;11.90;99.90
15951;DHT22;8074;48.112;11.570;2022-09-20T09:25:20;12.10;99.90
15951;DHT22;8074;48.112;11.570;2022-09-20T09:27:54;12.00;99.90
15951;DHT22;8074;48.112;11.570;2022-09-20T09:30:24;11.50;99.90
15951;DHT22;8074;48.112;11.570;2022-09-20T09:32:51;11.60;99.90
15951;DHT22;8074;48.112;11.570;2022-09-20T09:35:28;11.50;99.90
15951;DHT22;8074;48.112;11.570;2022-09-20T09:37:58;11.40;99.90
15951;DHT22;8074;48.112;11.570;2022-09-20T09:40:26;11.30;99.90
15951;DHT22;8074;48.112;11.570;2022-09-20T09:42:56;11.30;99.90
15951;DHT22;8074;48.112;11.570;2022-09-20T09:45:29;11.60;99.90
15951;DHT22;8074;48.112;11.570;2022-09-20T09:47:59;12.00;99.90
15951;DHT22;8074;48.112;11.570;2022-09-20T09:50:29;12.20;99.90
15951;DHT22;8074;48.112;11.570;2022-09-20T09:53:02;12.50;99.90
15951;DHT22;8074;48.112;11.570;2022-09-20T09:58:30;12.10;99.90
15951;DHT22;8074;48.112;11.570;2022-09-20T10:01:03;11.70;99.90
15951;DHT22;8074;48.112;11.570;2022-09-20T10:03:48;11.60;99.90
15951;DHT22;8074;48.112;11.570;2022-09-20T10:06:21;11.60;99.90
15951;DHT22;8074;48.112;11.570;2022-09-20T10:09:17;11.80;99.90
15951;DHT22;8074;48.112;11.570;2022-09-20T10:12:02;11.90;99.90
15951;DHT22;8074;48.112;11.570;2022-09-20T10:14:47;12.10;99.90
15951;DHT22;8074;48.112;11.570;2022-09-20T10:17:45;12.30;99.90
15951;DHT22;8074;48.112;11.570;2022-09-20T10:20:29;12.40;99.90
15951;DHT22;8074;48.112;11.570;2022-09-20T10:23:09;12.40;99.90
15951;DHT22;8074;48.112;11.570;2022-09-20T10:25:44;11.90;99.90
15951;DHT22;8074;48.112;11.570;2022-09-20T10:28:32;11.70;99.90
15951;DHT22;8074;48.112;11.570;2022-09-20T10:31:07;11.80;99.90
15951;DHT22;8074;48.112;11.570;2022-09-20T10:33:45;11.70;99.90
15951;DHT22;8074;48.112;11.570;2022-09-20T10:36:22;11.50;99.90
15951;DHT22;8074;48.112;11.570;2022-09-20T10:38:56;11.60;99.90
15951;DHT22;8074;48.112;11.570;2022-09-20T10:41:37;11.70;99.90
15951;DHT22;8074;48.112;11.570;2022-09-20T10:44:37;12.00;99.90
15951;DHT22;8074;48.112;11.570;2022-09-20T10:47:12;12.50;99.90
15951;DHT22;8074;48.112;11.570;2022-09-20T10:49:42;12.50;99.90
15951;DHT22;8074;48.112;11.570;2022-09-20T10:52:27;12.50;99.90
15951;DHT22;8074;48.112;11.570;2022-09-20T10:55:21;12.60;99.90
15951;DHT22;8074;48.112;11.570;2022-09-20T10:58:07;12.50;99.90
15951;DHT22;8074;48.112;11.570;2022-09-20T11:00:50;12.50;99.90
15951;DHT22;8074;48.112;11.570;2022-09-20T11:06:15;12.70;99.90
15951;DHT22;8074;48.112;11.570;2022-09-20T11:08:46;12.80;99.90
15951;DHT22;8074;48.112;11.570;2022-09-20T11:11:19;13.20;99.90
15951;DHT22;8074;48.112;11.570;2022-09-20T11:13:58;13.20;99.90
15951;DHT22;8074;48.112;11.570;2022-09-20T11:16:30;13.10;99.90
15951;DHT22;8074;48.112;11.570;2022-09-20T11:19:03;13.20;99.90
15951;DHT22;8074;48.112;11.570;2022-09-20T11:21:35;13.30;99.90
15951;DHT22;8074;48.112;11.570;2022-09-20T11:24:09;13.40;99.90
15951;DHT22;8074;48.112;11.570;2022-09-20T11:26:45;13.80;99.90
15951;DHT22;8074;48.112;11.570;2022-09-20T11:29:20;14.20;99.90
15951;DHT22;8074;48.112;11.570;2022-09-20T11:31:53;14.00;99.90
15951;DHT22;8074;48.112;11.570;2022-09-20T11:34:26;13.60;99.90
15951;DHT22;8074;48.112;11.570;2022-09-20T11:36:57;13.80;99.90
15951;DHT22;8074;48.112;11.570;2022-09-20T11:39:29;14.30;99.90
15951;DHT22;8074;48.112;11.570;2022-09-20T11:42:01;14.20;99.90
15951;DHT22;8074;48.112;11.570;2022-09-20T11:44:31;14.30;99.90
15951;DHT22;8074;48.112;11.570;2022-09-20T11:47:02;14.30;99.90
15951;DHT22;8074;48.112;11.570;2022-09-20T11:49:42;14.40;99.90
15951;DHT22;8074;48.112;11.570;2022-09-20T11:52:32;14.50;99.90
15951;DHT22;8074;48.112;11.570;2022-09-20T11:55:18;14.00;99.90
15951;DHT22;8074;48.112;11.570;2022-09-20T11:58:04;13.90;99.90
15951;DHT22;8074;48.112;11.570;2022-09-20T12:00:35;14.10;99.90
15951;DHT22;8074;48.112;11.570;2022-09-20T12:03:04;14.10;99.90
15951;DHT22;8074;48.112;11.570;2022-09-20T12:05:36;13.80;99.90
15951;DHT22;8074;48.112;11.570;2022-09-20T12:08:06;13.50;99.90
15951;DHT22;8074;48.112;11.570;2022-09-20T12:10:36;13.60;99.90
15951;DHT22;8074;48.112;11.570;2022-09-20T12:13:06;13.80;99.90
15951;DHT22;8074;48.112;11.570;2022-09-20T12:15:42;13.80;99.90
15951;DHT22;8074;48.112;11.570;2022-09-20T12:18:27;14.20;99.90
15951;DHT22;8074;48.112;11.570;2022-09-20T12:24:21;14.90;99.90
15951;DHT22;8074;48.112;11.570;2022-09-20T12:26:53;14.90;99.90
15951;DHT22;8074;48.112;11.570;2022-09-20T12:30:03;14.70;99.90
15951;DHT22;8074;48.112;11.570;2022-09-20T12:32:49;14.70;99.90
15951;DHT22;8074;48.112;11.570;2022-09-20T12:38:33;14.80;99.90
15951;DHT22;8074;48.112;11.570;2022-09-20T12:41:21;14.90;99.90
15951;DHT22;8074;48.112;11.570;2022-09-20T12:43:57;14.70;99.90
15951;DHT22;8074;48.112;11.570;2022-09-20T12:46:48;14.50;99.90
15951;DHT22;8074;48.112;11.570;2022-09-20T12:49:28;14.30;99.90
15951;DHT22;8074;48.112;11.570;2022-09-20T12:55:40;14.60;99.90
15951;DHT22;8074;48.112;11.570;2022-09-20T12:58:22;14.70;99.90
15951;DHT22;8074;48.112;11.570;2022-09-20T13:03:34;15.00;99.90
15951;DHT22;8074;48.112;11.570;2022-09-20T13:06:24;15.00;99.90
15951;DHT22;8074;48.112;11.570;2022-09-20T13:08:58;15.20;99.90
15951;DHT22;8074;48.112;11.570;2022-09-20T13:11:48;15.40;99.90
15951;DHT22;8074;48.112;11.570;2022-09-20T13:14:39;15.60;99.90
15951;DHT22;8074;48.112;11.570;2022-09-20T13:17:28;15.70;99.90
15951;DHT22;8074;48.112;11.570;2022-09-20T13:20:19;15.40;99.90
15951;DHT22;8074;48.112;11.570;2022-09-20T13:22:48;15.40;99.90
15951;DHT22;8074;48.112;11.570;2022-09-20T13:25:17;15.90;99.90
15951;DHT22;8074;48.112;11.570;2022-09-20T13:27:49;15.90;99.90
15951;DHT22;8074;48.112;11.570;2022-09-20T13:30:21;15.60;99.90
15951;DHT22;8074;48.112;11.570;2022-09-20T13:32:49;15.20;99.90
15951;DHT22;8074;48.112;11.570;2022-09-20T13:35:18;15.30;99.90
15951;DHT22;8074;48.112;11.570;2022-09-20T13:37:50;16.30;99.90
15951;DHT22;8074;48.112;11.570;2022-09-20T13:40:20;16.80;99.90
15951;DHT22;8074;48.112;11.570;2022-09-20T13:42:48;17.00;99.90
15951;DHT22;8074;48.112;11.570;2022-09-20T13:45:18;16.60;99.90
15951;DHT22;8074;48.112;11.570;2022-09-20T13:47:51;16.40;99.90
15951;DHT22;8074;48.112;11.570;2022-09-20T13:50:35;16.10;99.90
15951;DHT22;8074;48.112;11.570;2022-09-20T13:53:14;16.50;99.90
15951;DHT22;8074;48.112;11.570;2022-09-20T13:55:43;16.30;99.90
15951;DHT22;8074;48.112;11.570;2022-09-20T13:58:17;16.60;99.90
15951;DHT22;8074;48.112;11.570;2022-09-20T14:01:00;16.40;99.90
15951;DHT22;8074;48.112;11.570;2022-09-20T14:03:31;16.00;99.90
15951;DHT22;8074;48.112;11.570;2022-09-20T14:06:00;15.60;99.90
15951;DHT22;8074;48.112;11.570;2022-09-20T14:08:31;15.30;99.90
15951;DHT22;8074;48.112;11.570;2022-09-20T14:11:05;15.80;99.90
15951;DHT22;8074;48.112;11.570;2022-09-20T14:13:36;15.80;99.90
15951;DHT22;8074;48.112;11.570;2022-09-20T14:16:08;16.00;99.90
15951;DHT22;8074;48.112;11.570;2022-09-20T14:18:35;15.70;99.90
15951;DHT22;8074;48.112;11.570;2022-09-20T14:21:06;16.10;99.90
15951;DHT22;8074;48.112;11.570;2022-09-20T14:23:49;16.50;99.90
15951;DHT22;8074;48.112;11.570;2022-09-20T14:26:25;16.70;99.90
15951;DHT22;8074;48.112;11.570;2022-09-20T14:28:52;16.80;99.90
15951;DHT22;8074;48.112;11.570;2022-09-20T14:31:23;17.00;99.90
15951;DHT22;8074;48.112;11.570;2022-09-20T14:33:56;16.70;99.90
15951;DHT22;8074;48.112;11.570;2022-09-20T14:36:28;16.50;99.90
15951;DHT22;8074;48.112;11.570;2022-09-20T14:38:56;15.80;99.90
15951;DHT22;8074;48.112;11.570;2022-09-20T14:41:26;15.80;99.90
15951;DHT22;8074;48.112;11.570;2022-09-20T14:43:56;16.90;99.90
15951;DHT22;8074;48.112;11.570;2022-09-20T14:46:31;17.00;99.90
15951;DHT22;8074;48.112;11.570;2022-09-20T14:49:19;16.80;99.90
15951;DHT22;8074;48.112;11.570;2022-09-20T14:51:47;16.10;99.90
15951;DHT22;8074;48.112;11.570;2022-09-20T14:54:23;15.80;99.90
15951;DHT22;8074;48.112;11.570;2022-09-20T14:56:51;15.50;99.90
15951;DHT22;8074;48.112;11.570;2022-09-20T14:59:24;15.30;99.90
15951;DHT22;8074;48.112;11.570;2022-09-20T15:02:00;15.10;99.90
15951;DHT22;8074;48.112;11.570;2022-09-20T15:04:51;14.70;99.90
15951;DHT22;8074;48.112;11.570;2022-09-20T15:07:19;14.80;99.90
15951;DHT22;8074;48.112;11.570;2022-09-20T15:09:46;14.70;99.90
15951;DHT22;8074;48.112;11.570;2022-09-20T15:12:23;14.50;99.90
15951;DHT22;8074;48.112;11.570;2022-09-20T15:14:53;14.60;99.90
15951;DHT22;8074;48.112;11.570;2022-09-20T15:17:22;14.90;99.90
15951;DHT22;8074;48.112;11.570;2022-09-20T15:19:49;14.90;99.90
15951;DHT22;8074;48.112;11.570;2022-09-20T15:22:16;14.90;99.90
15951;DHT22;8074;48.112;11.570;2022-09-20T15:24:43;15.40;99.90
15951;DHT22;8074;48.112;11.570;2022-09-20T15:27:10;15.40;99.90
15951;DHT22;8074;48.112;11.570;2022-09-20T15:29:38;15.80;99.90
15951;DHT22;8074;48.112;11.570;2022-09-20T15:32:05;15.80;99.90
15951;DHT22;8074;48.112;11.570;2022-09-20T15:34:35;15.10;99.90
15951;DHT22;8074;48.112;11.570;2022-09-20T15:37:03;14.90;99.90
15951;DHT22;8074;48.112;11.570;2022-09-20T15:39:31;14.60;99.90
15951;DHT22;8074;48.112;11.570;2022-09-20T15:41:58;14.40;99.90
15951;DHT22;8074;48.112;11.570;2022-09-20T15:44:28;14.10;99.90
15951;DHT22;8074;48.112;11.570;2022-09-20T15:47:02;14.20;99.90
15951;DHT22;8074;48.112;11.570;2022-09-20T15:49:32;14.30;99.90
15951;DHT22;8074;48.112;11.570;2022-09-20T15:52:01;14.10;99.90
15951;DHT22;8074;48.112;11.570;2022-09-20T15:54:28;14.20;99.90
15951;DHT22;8074;48.112;11.570;2022-09-20T15:56:56;14.10;99.90
15951;DHT22;8074;48.112;11.570;2022-09-20T15:59:26;13.90;99.90
15951;DHT22;8074;48.112;11.570;2022-09-20T16:02:10;13.70;99.90
15951;DHT22;8074;48.112;11.570;2022-09-20T16:04:37;13.50;99.90
15951;DHT22;8074;48.112;11.570;2022-09-20T16:07:06;13.40;99.90
15951;DHT22;8074;48.112;11.570;2022-09-20T16:09:34;13.40;99.90
15951;DHT22;8074;48.112;11.570;2022-09-20T16:12:04;13.30;99.90
15951;DHT22;8074;48.112;11.570;2022-09-20T16:14:31;13.20;99.90
15951;DHT22;8074;48.112;11.570;2022-09-20T16:16:58;13.20;99.90
15951;DHT22;8074;48.112;11.570;2022-09-20T16:19:25;13.10;99.90
15951;DHT22;8074;48.112;11.570;2022-09-20T16:21:52;13.00;99.90
15951;DHT22;8074;48.112;11.570;2022-09-20T16:24:23;13.00;99.90
15951;DHT22;8074;48.112;11.570;2022-09-20T16:26:52;12.90;99.90
15951;DHT22;8074;48.112;11.570;2022-09-20T16:29:20;12.90;99.90
15951;DHT22;8074;48.112;11.570;2022-09-20T16:31:48;12.80;99.90
15951;DHT22;8074;48.112;11.570;2022-09-20T16:34:17;12.80;99.90
15951;DHT22;8074;48.112;11.570;2022-09-20T16:36:44;12.80;99.90
15951;DHT22;8074;48.112;11.570;2022-09-20T16:39:12;12.80;99.90
15951;DHT22;8074;48.112;11.570;2022-09-20T16:41:41;12.80;99.90
15951;DHT22;8074;48.112;11.570;2022-09-20T16:44:10;12.80;99.90
15951;DHT22;8074;48.112;11.570;2022-09-20T16:46:37;12.80;99.90
15951;DHT22;8074;48.112;11.570;2022-09-20T16:49:13;12.70;99.90
15951;DHT22;8074;48.112;11.570;2022-09-20T16:51:43;12.60;99.90
15951;DHT22;8074;48.112;11.570;2022-09-20T16:54:13;12.50;99.90
15951;DHT22;8074;48.112;11.570;2022-09-20T16:56:43;12.50;99.90
15951;DHT22;8074;48.112;11.570;2022-09-20T16:59:12;12.50;99.90
15951;DHT22;8074;48.112;11.570;2022-09-20T17:01:42;12.50;99.90
15951;DHT22;8074;48.112;11.570;2022-09-20T17:04:10;12.50;99.90
15951;DHT22;8074;48.112;11.570;2022-09-20T17:06:39;12.40;99.90
15951;DHT22;8074;48.112;11.570;2022-09-20T17:09:24;12.40;99.90
15951;DHT22;8074;48.112;11.570;2022-09-20T17:11:54;12.50;99.90
15951;DHT22;8074;48.112;11.570;2022-09-20T17:14:22;12.40;99.90
15951;DHT22;8074;48.112;11.570;2022-09-20T17:16:59;12.40;99.90
15951;DHT22;8074;48.112;11.570;2022-09-20T17:19:26;12.20;99.90
15951;DHT22;8074;48.112;11.570;2022-09-20T17:21:53;12.00;99.90
15951;DHT22;8074;48.112;11.570;2022-09-20T17:24:21;12.00;99.90
15951;DHT22;8074;48.112;11.570;2022-09-20T17:26:51;12.20;99.90
15951;DHT22;8074;48.112;11.570;2022-09-20T17:29:20;12.20;99.90
15951;DHT22;8074;48.112;11.570;2022-09-20T17:31:50;12.20;99.90
15951;DHT22;8074;48.112;11.570;2022-09-20T17:34:18;12.20;99.90
15951;DHT22;8074;48.112;11.570;2022-09-20T17:36:48;12.10;99.90
15951;DHT22;8074;48.112;11.570;2022-09-20T17:39:15;12.10;99.90
15951;DHT22;8074;48.112;11.570;2022-09-20T17:41:45;12.10;99.90
15951;DHT22;8074;48.112;11.570;2022-09-20T17:44:14;12.10;99.90
15951;DHT22;8074;48.112;11.570;2022-09-20T17:46:44;12.10;99.90
15951;DHT22;8074;48.112;11.570;2022-09-20T17:49:15;12.00;99.90
15951;DHT22;8074;48.112;11.570;2022-09-20T17:51:45;11.80;99.90
15951;DHT22;8074;48.112;11.570;2022-09-20T17:54:21;11.90;99.90
15951;DHT22;8074;48.112;11.570;2022-09-20T17:57:06;11.80;99.90
15951;DHT22;8074;48.112;11.570;2022-09-20T17:59:51;11.70;99.90
15951;DHT22;8074;48.112;11.570;2022-09-20T18:02:39;11.70;99.90
15951;DHT22;8074;48.112;11.570;2022-09-20T18:09:03;11.70;99.90
15951;DHT22;8074;48.112;11.570;2022-09-20T18:11:33;11.60;99.90
15951;DHT22;8074;48.112;11.570;2022-09-20T18:14:01;11.70;99.90
15951;DHT22;8074;48.112;11.570;2022-09-20T18:16:30;11.70;99.90
15951;DHT22;8074;48.112;11.570;2022-09-20T18:19:06;11.60;99.90
15951;DHT22;8074;48.112;11.570;2022-09-20T18:21:35;11.70;99.90
15951;DHT22;8074;48.112;11.570;2022-09-20T18:24:05;11.70;99.90
15951;DHT22;8074;48.112;11.570;2022-09-20T18:26:33;11.80;99.90
15951;DHT22;8074;48.112;11.570;2022-09-20T18:43:57;11.70;99.90
15951;DHT22;8074;48.112;11.570;2022-09-20T18:46:47;11.70;99.90
15951;DHT22;8074;48.112;11.570;2022-09-20T18:50:29;11.70;99.90